Time;durP1;ratioP1;P1;durP2;ratioP2;P2;SDS_P1;SDS_P2;PMS_P1;PMS_P2;Temp;Humidity;BMP_temperature;BMP_pressure;BME280_temperature;BME280_humidity;BME280_pressure;Samples;Min_cycle;Max_cycle;Signal;HPM_P1;HPM_P2
2022/04/15 00:01:55;;;;;;;;;;;10.90;99.90;;;;;;5095426;28;20011;-88
2022/04/15 00:04:22;;;;;;;;;;;11.00;99.90;;;;;;5095153;28;25076;-87
2022/04/15 00:06:48;;;;;;;;;;;11.00;1.00;;;;;;5095239;28;20406;-88
2022/04/15 00:09:17;;;;;;;;;;;11.00;1.00;;;;;;5094800;28;20478;-91
2022/04/15 00:11:44;;;;;;;;;;;11.10;1.00;;;;;;5094951;28;20056;-86
2022/04/15 00:14:11;;;;;;;;;;;11.10;1.00;;;;;;5095046;28;20060;-86
2022/04/15 00:16:43;;;;;;;;;;;11.10;1.00;;;;;;5094768;28;19996;-90
2022/04/15 00:19:11;;;;;;;;;;;11.20;1.00;;;;;;5094741;28;20432;-87
2022/04/15 00:21:37;;;;;;;;;;;11.20;1.00;;;;;;5094332;28;20019;-88
2022/04/15 00:24:04;;;;;;;;;;;11.20;1.00;;;;;;5094650;28;20058;-86
2022/04/15 00:26:32;;;;;;;;;;;11.20;1.00;;;;;;5094594;28;20060;-90
2022/04/15 00:28:59;;;;;;;;;;;11.30;1.00;;;;;;5094123;28;20006;-89
2022/04/15 00:31:26;;;;;;;;;;;11.30;1.00;;;;;;5094449;28;20014;-89
2022/04/15 00:33:53;;;;;;;;;;;11.40;1.00;;;;;;5093829;28;20498;-87
2022/04/15 00:36:19;;;;;;;;;;;11.40;1.00;;;;;;5093925;28;20449;-88
2022/04/15 00:38:46;;;;;;;;;;;11.40;1.00;;;;;;5094178;28;20022;-89
2022/04/15 00:41:14;;;;;;;;;;;11.40;1.00;;;;;;5093837;28;20018;-87
2022/04/15 00:43:42;;;;;;;;;;;11.50;1.00;;;;;;5094014;28;25095;-88
2022/04/15 00:46:09;;;;;;;;;;;11.50;1.00;;;;;;5093849;28;20020;-86
2022/04/15 00:48:36;;;;;;;;;;;11.50;1.00;;;;;;5093698;28;20022;-88
2022/04/15 00:51:03;;;;;;;;;;;11.50;1.00;;;;;;5093313;28;25111;-89
2022/04/15 00:53:31;;;;;;;;;;;11.50;1.00;;;;;;5093734;28;20801;-89
2022/04/15 00:55:58;;;;;;;;;;;11.50;1.00;;;;;;5093454;28;20362;-89
2022/04/15 00:58:25;;;;;;;;;;;11.50;1.00;;;;;;5093725;28;25060;-89
2022/04/15 01:00:56;;;;;;;;;;;11.60;1.00;;;;;;5093769;28;20057;-88
2022/04/15 01:03:23;;;;;;;;;;;11.50;1.00;;;;;;5093736;28;20020;-89
2022/04/15 01:05:50;;;;;;;;;;;11.50;1.00;;;;;;5093867;28;20048;-90
2022/04/15 01:08:21;;;;;;;;;;;11.60;1.00;;;;;;5093839;28;20003;-89
2022/04/15 01:10:48;;;;;;;;;;;11.50;1.00;;;;;;5093424;28;20009;-89
2022/04/15 01:13:15;;;;;;;;;;;11.50;1.00;;;;;;5094108;28;20042;-89
2022/04/15 01:15:42;;;;;;;;;;;11.50;1.00;;;;;;5093757;28;20067;-89
2022/04/15 01:18:11;;;;;;;;;;;11.50;1.00;;;;;;5093896;28;20018;-88
2022/04/15 01:20:39;;;;;;;;;;;11.60;1.00;;;;;;5093749;28;20004;-89
2022/04/15 01:23:07;;;;;;;;;;;11.60;1.00;;;;;;5093300;28;20092;-88
2022/04/15 01:25:35;;;;;;;;;;;11.60;1.00;;;;;;5095189;28;20000;-89
2022/04/15 01:28:01;;;;;;;;;;;11.60;1.00;;;;;;5094227;28;25073;-88
2022/04/15 01:30:28;;;;;;;;;;;11.60;96.20;;;;;;5094338;28;20042;-88
2022/04/15 01:32:55;;;;;;;;;;;11.60;66.40;;;;;;5094138;28;20020;-87
2022/04/15 01:35:22;;;;;;;;;;;11.60;1.00;;;;;;5093401;28;19997;-88
2022/04/15 01:37:49;;;;;;;;;;;11.70;6.80;;;;;;5104347;28;25149;-87
2022/04/15 01:40:18;;;;;;;;;;;11.60;8.40;;;;;;5114169;28;20022;-88
2022/04/15 01:42:46;;;;;;;;;;;11.60;1.00;;;;;;5113549;28;20023;-86
2022/04/15 01:45:13;;;;;;;;;;;11.60;1.00;;;;;;5113519;28;20001;-88
2022/04/15 01:47:40;;;;;;;;;;;11.60;1.00;;;;;;5113727;28;20006;-86
2022/04/15 01:50:07;;;;;;;;;;;11.60;1.00;;;;;;5113410;28;20013;-87
2022/04/15 01:52:34;;;;;;;;;;;11.60;42.80;;;;;;5113519;28;20037;-88
2022/04/15 01:55:01;;;;;;;;;;;11.60;40.00;;;;;;5113395;28;20011;-89
2022/04/15 01:57:29;;;;;;;;;;;11.60;35.30;;;;;;5113651;28;25076;-87
2022/04/15 01:59:56;;;;;;;;;;;11.70;1.00;;;;;;5112793;28;20467;-87
2022/04/15 02:02:22;;;;;;;;;;;11.70;1.00;;;;;;5112763;28;20555;-88
2022/04/15 02:04:49;;;;;;;;;;;11.60;1.00;;;;;;5112936;28;20054;-87
2022/04/15 02:07:16;;;;;;;;;;;11.70;1.00;;;;;;5112761;28;20048;-87
2022/04/15 02:09:43;;;;;;;;;;;11.70;1.00;;;;;;5113300;28;20015;-88
2022/04/15 02:12:10;;;;;;;;;;;11.60;1.00;;;;;;5112721;28;25061;-86
2022/04/15 02:14:38;;;;;;;;;;;11.70;94.50;;;;;;5113013;28;20069;-87
2022/04/15 02:17:05;;;;;;;;;;;11.70;70.70;;;;;;5113074;28;20023;-87
2022/04/15 02:19:32;;;;;;;;;;;11.70;99.90;;;;;;5113085;28;20021;-88
2022/04/15 02:21:58;;;;;;;;;;;11.70;99.90;;;;;;5114152;28;20407;-88
2022/04/15 02:24:25;;;;;;;;;;;11.70;66.80;;;;;;5117146;28;20082;-87
2022/04/15 02:26:52;;;;;;;;;;;11.70;13.30;;;;;;5117017;28;20114;-87
2022/04/15 02:29:19;;;;;;;;;;;11.70;1.00;;;;;;5116847;28;20082;-87
2022/04/15 02:31:47;;;;;;;;;;;11.70;1.00;;;;;;5117060;28;20119;-86
2022/04/15 02:34:14;;;;;;;;;;;11.70;1.00;;;;;;5116488;28;20068;-88
2022/04/15 02:36:40;;;;;;;;;;;11.60;1.00;;;;;;5116489;28;20050;-88
2022/04/15 02:39:10;;;;;;;;;;;11.60;1.00;;;;;;5116754;28;20228;-87
2022/04/15 02:41:37;;;;;;;;;;;11.60;1.00;;;;;;5116693;28;20008;-88
2022/04/15 02:44:04;;;;;;;;;;;11.50;1.00;;;;;;5116405;28;19999;-88
2022/04/15 02:46:30;;;;;;;;;;;11.40;1.00;;;;;;5116918;28;19919;-89
2022/04/15 02:48:59;;;;;;;;;;;11.40;1.00;;;;;;5116955;28;19960;-86
2022/04/15 02:51:26;;;;;;;;;;;11.40;1.00;;;;;;5116946;28;19923;-88
2022/04/15 02:53:53;;;;;;;;;;;11.40;1.00;;;;;;5116571;28;19924;-87
2022/04/15 02:56:20;;;;;;;;;;;11.30;1.00;;;;;;5116825;28;19980;-86
2022/04/15 02:58:46;;;;;;;;;;;11.30;99.90;;;;;;5116907;28;19920;-87
2022/04/15 03:01:13;;;;;;;;;;;11.30;99.90;;;;;;5116662;28;19919;-88
2022/04/15 03:03:40;;;;;;;;;;;11.20;99.90;;;;;;5116618;28;19924;-86
2022/04/15 03:06:08;;;;;;;;;;;11.20;99.90;;;;;;5116344;28;19949;-87
2022/04/15 03:08:35;;;;;;;23.40;14.13;;;11.20;99.90;;;;;;5116107;28;20016;-87
2022/04/15 03:11:02;;;;;;;21.90;13.27;;;11.10;82.50;;;;;;5116307;28;20676;-86
2022/04/15 03:13:29;;;;;;;20.10;12.07;;;11.00;4.40;;;;;;5115879;28;20216;-89
2022/04/15 03:15:56;;;;;;;24.13;12.60;;;11.00;1.00;;;;;;5115870;28;20257;-89
2022/04/15 03:18:23;;;;;;;16.77;10.87;;;10.90;1.00;;;;;;5115863;28;20201;-88
2022/04/15 03:20:50;;;;;;;17.17;10.23;;;10.90;1.00;;;;;;5115996;28;20228;-89
2022/04/15 03:23:19;;;;;;;16.90;10.10;;;10.80;1.00;;;;;;5116058;28;20245;-88
2022/04/15 03:25:47;;;;;;;16.13;10.63;;;10.70;1.00;;;;;;5115737;28;20195;-87
2022/04/15 03:28:15;;;;;;;13.80;8.87;;;10.60;99.90;;;;;;5115765;28;20197;-88
2022/04/15 03:30:42;;;;;;;14.57;8.87;;;10.40;99.90;;;;;;5115298;28;20195;-87
2022/04/15 03:33:08;;;;;;;13.80;8.33;;;10.30;8.10;;;;;;5114348;28;20676;-88
2022/04/15 03:35:36;;;;;;;13.53;8.70;;;10.20;1.00;;;;;;5114773;28;20624;-87
2022/04/15 03:38:03;;;;;;;17.97;9.27;;;10.00;1.00;;;;;;5114570;28;20226;-87
2022/04/15 03:40:31;;;;;;;13.90;9.47;;;9.90;1.00;;;;;;5115210;28;20187;-87
2022/04/15 03:42:58;;;;;;;13.30;9.10;;;9.80;1.00;;;;;;5114918;28;20191;-88
2022/04/15 03:45:25;;;;;;;12.93;8.57;;;9.60;1.00;;;;;;5114763;28;20224;-87
2022/04/15 03:47:54;;;;;;;17.27;8.70;;;9.50;1.00;;;;;;5116426;28;20237;-89
2022/04/15 03:50:21;;;;;;;13.33;9.77;;;9.40;1.00;;;;;;5115408;28;20525;-89
2022/04/15 03:52:50;;;;;;;17.20;9.03;;;9.30;1.00;;;;;;5118542;28;20602;-92
2022/04/15 03:55:19;;;;;;;14.07;9.60;;;9.20;1.00;;;;;;5118340;28;20519;-87
2022/04/15 03:57:47;;;;;;;15.77;10.00;;;9.10;1.00;;;;;;5115488;28;20385;-87
2022/04/15 04:00:18;;;;;;;15.73;11.37;;;9.00;1.00;;;;;;5115967;28;20536;-87
2022/04/15 04:02:46;;;;;;;17.27;9.87;;;9.00;1.00;;;;;;5115815;28;20194;-88
2022/04/15 04:05:14;;;;;;;17.23;10.67;;;9.00;1.00;;;;;;5117834;28;20689;-88
2022/04/15 04:07:41;;;;;;;20.57;11.57;;;9.00;1.00;;;;;;5118920;28;20190;-90
2022/04/15 04:10:08;;;;;;;21.50;12.57;;;9.00;4.20;;;;;;5119359;28;20182;-93
2022/04/15 04:12:36;;;;;;;28.07;14.80;;;9.00;99.90;;;;;;5119313;28;20188;-88
2022/04/15 04:15:06;;;;;;;31.17;16.27;;;9.00;99.90;;;;;;5122639;28;20217;-86
2022/04/15 04:17:34;;;;;;;25.80;14.37;;;9.10;99.90;;;;;;5123157;28;20231;-86
2022/04/15 04:20:01;;;;;;;21.40;13.00;;;9.10;1.00;;;;;;5116470;28;20187;-89
2022/04/15 04:22:29;;;;;;;21.77;11.80;;;9.20;1.00;;;;;;5125518;28;20201;-86
2022/04/15 04:24:56;;;;;;;20.07;12.67;;;9.30;1.00;;;;;;5125420;28;20221;-87
2022/04/15 04:27:23;;;;;;;20.47;11.33;;;9.30;1.00;;;;;;5114288;28;20190;-88
2022/04/15 04:29:50;;;;;;;18.33;10.87;;;9.40;1.00;;;;;;5115685;28;20191;-86
2022/04/15 04:32:20;;;;;;;21.37;11.00;;;9.50;1.00;;;;;;5113989;28;20191;-88
2022/04/15 04:34:47;;;;;;;17.33;10.67;;;9.60;1.00;;;;;;5120740;28;20208;-88
2022/04/15 04:37:14;;;;;;;20.33;11.43;;;9.60;1.00;;;;;;5117572;28;20187;-88
2022/04/15 04:39:41;;;;;;;16.90;10.83;;;9.60;1.00;;;;;;5118124;28;20215;-89
2022/04/15 04:42:09;;;;;;;22.47;12.33;;;9.70;1.00;;;;;;5119784;28;20183;-86
2022/04/15 04:44:38;;;;;;;19.27;11.30;;;9.70;1.00;;;;;;5116925;28;20191;-88
2022/04/15 04:47:06;;;;;;;16.40;10.93;;;9.70;1.00;;;;;;5113796;28;20579;-87
2022/04/15 04:49:35;;;;;;;19.10;11.40;;;9.80;1.00;;;;;;5113638;28;20247;-87
2022/04/15 04:52:02;;;;;;;20.80;11.70;;;9.80;1.00;;;;;;5113631;28;20254;-88
2022/04/15 04:54:30;;;;;;;20.63;11.80;;;9.80;1.00;;;;;;5113361;28;20219;-87
2022/04/15 04:56:57;;;;;;;24.33;13.40;;;9.80;1.00;;;;;;5113155;28;20659;-88
2022/04/15 04:59:25;;;;;;;20.50;12.60;;;9.80;1.00;;;;;;5117409;28;20186;-88
2022/04/15 05:01:52;;;;;;;20.77;11.63;;;9.80;1.00;;;;;;5118974;28;20222;-91
2022/04/15 05:04:19;;;;;;;16.27;11.57;;;9.80;1.00;;;;;;5113929;28;20214;-90
2022/04/15 05:06:48;;;;;;;22.23;14.97;;;9.80;1.00;;;;;;5113748;28;20188;-91
2022/04/15 05:09:15;;;;;;;21.10;13.10;;;9.90;1.00;;;;;;5113870;28;20245;-91
2022/04/15 05:11:42;;;;;;;20.47;12.23;;;9.80;1.00;;;;;;5112409;28;20190;-93
2022/04/15 05:14:09;;;;;;;17.90;12.57;;;9.90;1.00;;;;;;5112905;28;20255;-91
2022/04/15 05:16:36;;;;;;;21.00;12.00;;;9.80;1.00;;;;;;5115599;28;20187;-94
2022/04/15 05:19:03;;;;;;;15.90;11.13;;;9.90;1.00;;;;;;5120047;28;20261;-89
2022/04/15 05:21:30;;;;;;;22.30;13.07;;;9.90;1.00;;;;;;5120000;28;20210;-90
2022/04/15 05:23:59;;;;;;;24.00;12.30;;;9.80;1.00;;;;;;5116306;28;20245;-91
2022/04/15 05:26:26;;;;;;;22.67;12.50;;;9.80;1.00;;;;;;5117046;28;20239;-89
2022/04/15 05:28:53;;;;;;;20.03;11.80;;;9.90;1.00;;;;;;5115541;28;20577;-91
2022/04/15 05:31:20;;;;;;;22.23;12.80;;;9.90;99.90;;;;;;5113779;28;20650;-92
2022/04/15 05:33:47;;;;;;;22.00;12.90;;;9.90;99.90;;;;;;5113836;28;20267;-91
2022/04/15 05:36:13;;;;;;;23.10;13.47;;;9.90;99.90;;;;;;5113765;28;20244;-91
2022/04/15 05:38:40;;;;;;;24.10;13.77;;;9.90;99.90;;;;;;5113693;28;20269;-92
2022/04/15 05:41:09;;;;;;;19.67;13.47;;;9.80;99.90;;;;;;5119401;28;20190;-91
2022/04/15 05:43:37;;;;;;;23.77;14.37;;;9.80;99.90;;;;;;5119592;28;20184;-92
2022/04/15 05:46:04;;;;;;;27.93;14.87;;;9.80;99.90;;;;;;5113632;28;20193;-91
2022/04/15 05:48:31;;;;;;;25.73;15.00;;;9.80;99.90;;;;;;5113671;28;20223;-92
2022/04/15 05:50:59;;;;;;;22.37;13.53;;;9.80;99.90;;;;;;5113959;28;20696;-91
2022/04/15 05:53:26;;;;;;;31.87;14.80;;;9.80;99.90;;;;;;5113442;28;20674;-91
2022/04/15 05:55:53;;;;;;;31.27;16.10;;;9.80;99.90;;;;;;5115097;28;20188;-92
2022/04/15 05:58:21;;;;;;;28.23;16.50;;;9.80;99.90;;;;;;5120942;28;20189;-90
2022/04/15 06:00:48;;;;;;;29.67;15.90;;;9.80;99.90;;;;;;5125632;28;20192;-92
2022/04/15 06:03:15;;;;;;;29.97;16.27;;;9.80;99.90;;;;;;5117588;28;20245;-92
2022/04/15 06:05:42;;;;;;;30.27;15.07;;;9.90;99.90;;;;;;5122682;28;20190;-90
2022/04/15 06:08:09;;;;;;;33.33;16.50;;;9.90;99.90;;;;;;5122763;28;20183;-92
2022/04/15 06:10:36;;;;;;;26.30;14.63;;;9.90;99.90;;;;;;5117300;28;20654;-91
2022/04/15 06:13:08;;;;;;;24.73;14.67;;;9.90;91.60;;;;;;5117649;28;20182;-92
2022/04/15 06:15:41;;;;;;;30.30;17.47;;;9.90;12.60;;;;;;5123808;28;20222;-91
2022/04/15 06:18:09;;;;;;;28.50;15.23;;;9.90;1.00;;;;;;5121623;28;20196;-91
2022/04/15 06:20:36;;;;;;;26.53;15.57;;;9.90;1.00;;;;;;5117304;28;20196;-92
2022/04/15 06:23:03;;;;;;;28.57;15.33;;;10.00;1.00;;;;;;5117387;28;20204;-91
2022/04/15 06:25:30;;;;;;;39.30;18.93;;;10.00;1.00;;;;;;5117673;28;20249;-92
2022/04/15 06:27:57;;;;;;;25.27;15.27;;;10.00;1.00;;;;;;5118223;28;20623;-90
2022/04/15 06:30:24;;;;;;;31.37;17.20;;;10.00;1.00;;;;;;5123677;28;20200;-89
2022/04/15 06:32:54;;;;;;;29.20;15.87;;;10.00;1.00;;;;;;5118218;28;20191;-90
2022/04/15 06:35:21;;;;;;;29.50;15.90;;;10.10;1.00;;;;;;5118357;28;20210;-91
2022/04/15 06:37:48;;;;;;;32.23;16.20;;;10.10;1.00;;;;;;5117218;28;20189;-90
2022/04/15 06:40:15;;;;;;;29.20;15.50;;;10.10;1.00;;;;;;5117232;28;20226;-90
2022/04/15 06:42:42;;;;;;;29.77;17.30;;;10.10;1.00;;;;;;5116563;28;20640;-91
2022/04/15 06:45:11;;;;;;;25.47;14.90;;;10.10;1.00;;;;;;5116618;28;20579;-92
2022/04/15 06:47:38;;;;;;;26.47;14.87;;;10.20;1.00;;;;;;5116972;28;20280;-90
2022/04/15 06:50:07;;;;;;;31.37;15.90;;;10.20;1.00;;;;;;5116519;28;20243;-92
2022/04/15 06:52:34;;;;;;;24.27;13.33;;;10.30;1.00;;;;;;5117061;28;20196;-89
2022/04/15 06:55:01;;;;;;;23.10;14.10;;;10.30;1.00;;;;;;5116426;28;20689;-91
2022/04/15 06:57:28;;;;;;;29.73;16.73;;;10.40;1.00;;;;;;5116812;28;20206;-93
2022/04/15 06:59:55;;;;;;;18.63;12.60;;;10.30;1.00;;;;;;5116693;28;20197;-90
2022/04/15 07:02:22;;;;;;;27.73;14.57;;;10.30;1.00;;;;;;5115581;28;20246;-90
2022/04/15 07:04:49;;;;;;;27.23;13.80;;;10.30;1.00;;;;;;5115987;28;20187;-90
2022/04/15 07:07:18;;;;;;;35.23;17.67;;;10.30;99.90;;;;;;5115287;28;20193;-91
2022/04/15 07:09:45;;;;;;;44.97;20.53;;;10.20;99.90;;;;;;5115622;28;20187;-90
2022/04/15 07:12:12;;;;;;;33.43;16.90;;;10.20;99.90;;;;;;5116231;28;20287;-90
2022/04/15 07:14:39;;;;;;;20.73;12.00;;;10.10;99.90;;;;;;5116282;28;20220;-90
2022/04/15 07:17:06;;;;;;;31.00;14.80;;;10.10;99.90;;;;;;5116137;28;20190;-89
2022/04/15 07:19:33;;;;;;;22.97;13.13;;;10.00;99.90;;;;;;5116459;28;20194;-90
2022/04/15 07:22:00;;;;;;;24.53;14.00;;;10.00;99.90;;;;;;5115955;28;20192;-90
2022/04/15 07:24:30;;;;;;;25.87;14.73;;;10.00;1.00;;;;;;5115620;28;20250;-90
2022/04/15 07:26:57;;;;;;;34.10;16.63;;;10.00;1.00;;;;;;5115713;28;20643;-90
2022/04/15 07:29:26;;;;;;;22.30;12.30;;;10.10;1.00;;;;;;5116072;28;20196;-90
2022/04/15 07:31:53;;;;;;;29.83;14.77;;;10.10;1.00;;;;;;5115802;28;20192;-92
2022/04/15 07:34:20;;;;;;;30.23;15.17;;;10.10;1.00;;;;;;5115606;28;20208;-90
2022/04/15 07:36:53;;;;;;;44.80;21.77;;;10.10;99.90;;;;;;5115429;28;20189;-90
2022/04/15 07:39:21;;;;;;;53.97;30.43;;;10.10;99.90;;;;;;5115694;28;20218;-91
2022/04/15 07:41:50;;;;;;;27.43;14.93;;;10.10;99.90;;;;;;5115515;28;20196;-90
2022/04/15 07:44:18;;;;;;;26.20;14.27;;;10.10;1.00;;;;;;5115478;28;20243;-90
2022/04/15 07:46:46;;;;;;;32.03;15.17;;;10.20;99.90;;;;;;5115436;28;20192;-90
2022/04/15 07:49:13;;;;;;;34.97;17.47;;;10.20;99.90;;;;;;5114921;28;20191;-89
2022/04/15 07:51:40;;;;;;;25.10;13.67;;;10.20;99.90;;;;;;5115118;28;20190;-90
2022/04/15 07:54:08;;;;;;;65.67;25.93;;;10.20;99.90;;;;;;5115292;28;20190;-91
2022/04/15 07:56:36;;;;;;;31.23;14.90;;;10.20;99.90;;;;;;5115573;28;20278;-90
2022/04/15 07:59:05;;;;;;;49.07;21.67;;;10.20;99.90;;;;;;5119827;28;20628;-91
2022/04/15 08:01:32;;;;;;;46.37;21.17;;;10.20;99.90;;;;;;5119018;28;20187;-91
2022/04/15 08:04:00;;;;;;;30.10;15.97;;;10.30;99.90;;;;;;5114922;28;20244;-92
2022/04/15 08:06:29;;;;;;;22.17;12.90;;;10.30;99.90;;;;;;5114431;28;20193;-90
2022/04/15 08:08:59;;;;;;;26.43;15.90;;;10.30;1.00;;;;;;5114943;28;20229;-90
2022/04/15 08:11:28;;;;;;;18.93;11.63;;;10.40;1.00;;;;;;5115318;28;20183;-91
2022/04/15 08:13:55;;;;;;;20.93;12.87;;;10.50;1.00;;;;;;5115136;28;20197;-91
2022/04/15 08:16:24;;;;;;;33.30;17.13;;;10.50;1.00;;;;;;5115099;28;20650;-91
2022/04/15 08:18:52;;;;;;;16.70;10.23;;;10.60;1.00;;;;;;5115044;28;20278;-92
2022/04/15 08:21:19;;;;;;;47.40;19.23;;;10.70;99.90;;;;;;5114967;28;20204;-92
2022/04/15 08:23:47;;;;;;;24.17;13.30;;;10.70;99.90;;;;;;5115250;28;20191;-90
2022/04/15 08:26:14;;;;;;;15.73;9.47;;;10.80;99.90;;;;;;5115091;28;20198;-90
2022/04/15 08:28:42;;;;;;;17.17;10.43;;;10.90;99.90;;;;;;5126554;28;20191;-91
2022/04/15 08:31:54;;;;;;;13.17;9.00;;;11.00;99.90;;;;;;5138993;28;20175;-95
2022/04/15 08:34:24;;;;;;;14.77;10.00;;;11.10;99.90;;;;;;5138934;28;20246;-90
2022/04/15 08:36:54;;;;;;;13.30;9.13;;;11.10;99.90;;;;;;5138907;28;20199;-90
2022/04/15 08:39:30;;;;;;;12.97;9.10;;;11.10;99.90;;;;;;5137743;28;20289;-91
2022/04/15 08:42:04;;;;;;;11.87;8.60;;;11.10;49.00;;;;;;5138487;28;20191;-91
2022/04/15 08:44:33;;;;;;;12.70;9.17;;;11.10;16.40;;;;;;5138486;28;20198;-92
2022/04/15 08:47:05;;;;;;;13.90;9.27;;;11.20;1.00;;;;;;5138450;28;20192;-90
2022/04/15 08:49:38;;;;;;;12.37;8.90;;;11.10;1.00;;;;;;5138092;28;20235;-91
2022/04/15 08:52:13;;;;;;;11.17;7.63;;;11.20;1.00;;;;;;5138277;28;20184;-91
2022/04/15 08:54:52;;;;;;;12.50;8.50;;;11.20;1.00;;;;;;5136559;28;20194;-93
2022/04/15 08:57:29;;;;;;;13.83;8.60;;;11.40;1.00;;;;;;5137957;28;20194;-91
2022/04/15 09:02:45;;;;;;;12.07;8.87;;;11.40;1.00;;;;;;5118685;28;20190;-91
2022/04/15 09:05:20;;;;;;;12.90;8.23;;;11.40;1.00;;;;;;5136267;28;20183;-93
2022/04/15 09:07:51;;;;;;;12.83;8.57;;;11.50;1.00;;;;;;5136503;28;20194;-91
2022/04/15 09:10:23;;;;;;;11.47;8.33;;;11.60;1.00;;;;;;5136798;28;20196;-94
2022/04/15 09:12:57;;;;;;;12.10;8.63;;;11.60;1.00;;;;;;5136896;28;20187;-90
2022/04/15 09:15:25;;;;;;;14.33;8.27;;;11.70;1.00;;;;;;5136684;28;20220;-94
2022/04/15 09:17:59;;;;;;;11.27;8.63;;;11.70;1.00;;;;;;5136819;28;20199;-92
2022/04/15 09:20:33;;;;;;;11.57;8.60;;;11.80;1.00;;;;;;5136815;28;20178;-92
2022/04/15 09:23:12;;;;;;;13.03;8.93;;;11.90;1.00;;;;;;5136638;28;20241;-91
2022/04/15 09:25:43;;;;;;;14.63;8.73;;;11.90;1.00;;;;;;5136931;28;20187;-92
2022/04/15 09:28:14;;;;;;;13.67;9.30;;;12.00;99.90;;;;;;5137228;28;20369;-93
2022/04/15 09:30:51;;;;;;;15.07;10.70;;;12.00;99.90;;;;;;5136197;28;20215;-94
2022/04/15 09:33:20;;;;;;;32.57;22.80;;;12.00;99.90;;;;;;5136496;28;20235;-90
2022/04/15 09:36:06;;;;;;;13.33;10.40;;;11.90;99.90;;;;;;5136195;28;20218;-93
2022/04/15 09:38:49;;;;;;;13.63;9.53;;;11.80;99.90;;;;;;5136142;28;20221;-92
2022/04/15 09:41:23;;;;;;;12.67;9.40;;;11.70;99.90;;;;;;5135990;28;20252;-90
2022/04/15 09:43:54;;;;;;;13.33;8.83;;;11.60;99.90;;;;;;5136551;28;20176;-92
2022/04/15 09:46:26;;;;;;;14.47;9.50;;;11.50;99.90;;;;;;5136370;28;20226;-90
2022/04/15 09:49:07;;;;;;;13.67;9.30;;;11.30;99.90;;;;;;5136547;28;20192;-92
2022/04/15 09:51:39;;;;;;;14.40;9.47;;;11.20;99.90;;;;;;5136481;28;20199;-94
2022/04/15 09:54:08;;;;;;;16.00;9.73;;;11.10;99.90;;;;;;5135665;28;20216;-90
2022/04/15 09:56:39;;;;;;;16.00;10.33;;;11.00;99.90;;;;;;5135766;28;20202;-90
2022/04/15 09:59:15;;;;;;;16.57;10.07;;;11.00;1.00;;;;;;5135834;28;20194;-95
2022/04/15 10:01:46;;;;;;;14.27;10.23;;;11.00;1.00;;;;;;5136175;28;20201;-93
2022/04/15 10:04:15;;;;;;;14.03;9.50;;;11.10;1.00;;;;;;5135811;28;20253;-93
2022/04/15 10:06:47;;;;;;;14.90;10.27;;;11.10;1.00;;;;;;5135940;28;20197;-92
2022/04/15 10:09:17;;;;;;;17.67;11.60;;;11.00;1.00;;;;;;5135898;28;20191;-93
2022/04/15 10:11:56;;;;;;;24.87;14.17;;;11.00;1.00;;;;;;5135945;28;20202;-91
2022/04/15 10:14:26;;;;;;;35.53;17.40;;;10.90;1.00;;;;;;5135924;28;20263;-93
2022/04/15 10:16:59;;;;;;;28.40;14.43;;;10.90;1.00;;;;;;5135706;28;20213;-93
2022/04/15 10:19:33;;;;;;;20.77;11.80;;;10.90;1.00;;;;;;5135605;28;20190;-92
2022/04/15 10:22:08;;;;;;;25.50;14.57;;;11.00;1.00;;;;;;5135220;28;20196;-91
2022/04/15 10:24:37;;;;;;;21.50;13.20;;;11.00;1.00;;;;;;5135066;28;20209;-92
2022/04/15 10:27:08;;;;;;;19.97;12.27;;;11.10;1.00;;;;;;5135719;28;20248;-93
2022/04/15 10:29:37;;;;;;;35.50;16.57;;;11.10;1.00;;;;;;5135525;28;20203;-92
2022/04/15 10:32:14;;;;;;;23.63;13.17;;;11.20;1.00;;;;;;5135917;28;20186;-92
2022/04/15 10:34:48;;;;;;;21.57;13.50;;;11.30;1.00;;;;;;5136077;28;20178;-91
2022/04/15 10:37:49;;;;;;;17.67;11.33;;;11.40;1.00;;;;;;5135898;28;20277;-92
2022/04/15 10:40:24;;;;;;;19.73;13.37;;;11.60;1.00;;;;;;5135458;28;20187;-95
2022/04/15 10:42:51;;;;;;;22.10;13.60;;;11.60;1.00;;;;;;5136862;28;20183;-91
2022/04/15 10:45:29;;;;;;;20.47;12.37;;;11.60;1.00;;;;;;5139190;28;20247;-93
2022/04/15 10:48:00;;;;;;;17.33;11.73;;;11.60;1.00;;;;;;5139368;28;20192;-92
2022/04/15 10:50:29;;;;;;;16.47;10.43;;;11.50;1.00;;;;;;5139134;28;20683;-93
2022/04/15 10:53:34;;;;;;;16.77;11.47;;;11.40;1.00;;;;;;5139457;28;20195;-92
2022/04/15 10:56:13;;;;;;;18.00;11.20;;;11.30;1.00;;;;;;5139077;28;20207;-93
2022/04/15 11:01:54;;;;;;;17.60;11.67;;;11.30;1.00;;;;;;5138942;28;20178;-95
2022/04/15 11:04:26;;;;;;;17.43;11.23;;;11.30;1.00;;;;;;5139287;28;20188;-92
2022/04/15 11:06:59;;;;;;;14.43;10.27;;;11.50;1.00;;;;;;5139611;28;20196;-95
2022/04/15 11:09:36;;;;;;;18.47;11.20;;;11.60;1.00;;;;;;5138908;28;20199;-91
2022/04/15 11:12:06;;;;;;;16.17;10.00;;;11.70;1.00;;;;;;5138845;28;20192;-93
2022/04/15 11:14:35;;;;;;;14.17;9.90;;;11.70;1.00;;;;;;5139109;28;20263;-90
2022/04/15 11:17:04;;;;;;;13.27;9.47;;;11.80;1.00;;;;;;5138839;28;20234;-91
2022/04/15 11:19:33;;;;;;;12.90;9.87;;;11.80;1.00;;;;;;5138432;28;20183;-94
2022/04/15 11:22:02;;;;;;;15.70;10.13;;;11.90;1.00;;;;;;5138657;28;20193;-93
2022/04/15 11:24:41;;;;;;;17.47;10.60;;;11.90;99.90;;;;;;5138822;28;20196;-91
2022/04/15 11:27:11;;;;;;;11.73;8.23;;;11.80;99.90;;;;;;5138754;28;20191;-91
2022/04/15 11:29:41;;;;;;;12.53;9.00;;;11.70;99.90;;;;;;5138938;28;20209;-92
2022/04/15 11:32:10;;;;;;;13.30;8.80;;;11.70;99.90;;;;;;5138266;28;20182;-92
2022/04/15 11:34:37;;;;;;;11.90;8.90;;;11.80;99.90;;;;;;5137832;28;20187;-92
2022/04/15 11:37:09;;;;;;;12.07;8.87;;;11.80;99.90;;;;;;5138108;28;20233;-92
2022/04/15 11:39:46;;;;;;;14.43;9.03;;;12.00;99.90;;;;;;5138705;28;20219;-92
2022/04/15 11:42:17;;;;;;;13.30;9.00;;;12.00;99.90;;;;;;5137631;28;20250;-91
2022/04/15 11:44:46;;;;;;;11.33;8.07;;;12.10;99.90;;;;;;5137383;28;20187;-93
2022/04/15 11:47:25;;;;;;;12.23;8.03;;;12.00;99.90;;;;;;5137263;28;20555;-91
2022/04/15 11:49:56;;;;;;;10.70;8.23;;;11.90;99.90;;;;;;5138433;28;20187;-94
2022/04/15 11:52:30;;;;;;;10.23;7.97;;;11.80;99.90;;;;;;5137876;28;20199;-95
2022/04/15 11:55:00;;;;;;;11.00;8.13;;;11.70;99.90;;;;;;5137372;28;20183;-94
2022/04/15 11:57:30;;;;;;;11.50;8.53;;;11.60;99.90;;;;;;5137972;28;20204;-93
2022/04/15 12:00:04;;;;;;;16.57;10.20;;;11.60;99.90;;;;;;5138491;28;20255;-93
2022/04/15 12:02:33;;;;;;;14.00;9.13;;;11.50;99.90;;;;;;5137869;28;20263;-92
2022/04/15 12:05:02;;;;;;;13.13;8.43;;;11.40;99.90;;;;;;5137229;28;20217;-90
2022/04/15 12:07:35;;;;;;;12.57;8.00;;;11.40;99.90;;;;;;5137287;28;20191;-90
2022/04/15 12:10:14;;;;;;;11.40;7.50;;;11.40;1.00;;;;;;5137581;28;20195;-92
2022/04/15 12:12:42;;;;;;;10.70;7.57;;;11.40;1.00;;;;;;5137798;28;20186;-91
2022/04/15 12:15:13;;;;;;;11.53;7.83;;;11.40;1.00;;;;;;5137661;28;20183;-93
2022/04/15 12:17:42;;;;;;;12.67;8.27;;;11.50;1.00;;;;;;5137156;28;20226;-93
2022/04/15 12:20:14;;;;;;;13.87;8.70;;;11.50;1.00;;;;;;5136901;28;20200;-92
2022/04/15 12:22:42;;;;;;;13.17;9.07;;;11.50;1.00;;;;;;5137145;28;20187;-95
2022/04/15 12:25:19;;;;;;;14.63;7.80;;;11.60;1.00;;;;;;5137100;28;20200;-94
2022/04/15 12:27:48;;;;;;;10.83;7.60;;;11.70;1.00;;;;;;5137680;28;20191;-91
2022/04/15 12:30:37;;;;;;;9.63;6.80;;;11.70;1.00;;;;;;5138043;28;20182;-91
2022/04/15 12:33:08;;;;;;;11.53;7.30;;;11.80;1.00;;;;;;5138111;28;20188;-92
2022/04/15 12:35:36;;;;;;;9.10;6.60;;;11.80;1.00;;;;;;5137853;28;20192;-92
2022/04/15 12:38:07;;;;;;;8.70;6.40;;;11.80;1.00;;;;;;5137224;28;20202;-92
2022/04/15 12:40:38;;;;;;;8.67;6.00;;;11.80;1.00;;;;;;5137058;28;20200;-93
2022/04/15 12:43:17;;;;;;;8.67;6.10;;;11.80;1.00;;;;;;5137100;28;20195;-89
2022/04/15 12:45:55;;;;;;;9.77;6.13;;;11.80;1.00;;;;;;5137263;28;20187;-90
2022/04/15 12:48:24;;;;;;;7.57;5.90;;;11.70;1.00;;;;;;5137507;28;20256;-91
2022/04/15 12:50:58;;;;;;;8.97;6.23;;;11.70;1.00;;;;;;5137165;28;20188;-93
2022/04/15 12:53:38;;;;;;;7.60;6.10;;;11.60;1.00;;;;;;5136975;28;20199;-90
2022/04/15 12:56:15;;;;;;;8.13;6.20;;;11.60;1.00;;;;;;5137039;28;20199;-91
2022/04/15 12:58:57;;;;;;;8.90;6.77;;;11.50;1.00;;;;;;5137244;28;20191;-91
2022/04/15 13:01:25;;;;;;;9.50;6.60;;;11.40;1.00;;;;;;5137216;28;20186;-93
2022/04/15 13:03:54;;;;;;;8.33;6.57;;;11.30;1.00;;;;;;5137715;28;20199;-92
2022/04/15 13:06:32;;;;;;;9.73;6.80;;;11.30;1.00;;;;;;5136963;28;20255;-92
2022/04/15 13:09:00;;;;;;;9.90;7.20;;;11.20;1.00;;;;;;5137239;28;20221;-91
2022/04/15 13:11:29;;;;;;;10.27;7.70;;;11.10;1.00;;;;;;5137450;28;20190;-94
2022/04/15 13:13:57;;;;;;;12.43;8.53;;;11.00;1.00;;;;;;5137308;28;20180;-93
2022/04/15 13:16:27;;;;;;;11.97;8.30;;;11.00;1.00;;;;;;5136949;28;20223;-92
2022/04/15 13:18:57;;;;;;;12.10;8.63;;;10.90;1.00;;;;;;5137090;28;20261;-93
2022/04/15 13:21:31;;;;;;;10.33;7.97;;;10.80;1.00;;;;;;5137763;28;20181;-89